Schillplate — ZDJJ8 — position and weather

sailwx.info

Track history (hours):
 
Tides and Currents Weather Stations Pressure Air Temp Water Temp Dewpoint Dewpoint Depression Visibility Wind Speed Wind Dir Waves Ship Positions

Schillplate

Last reported at 2017-Apr-19 01:05 UTC. Time now 2017-Apr-27 13:05 UTC.
Position N 44°26' E 014°17'.
Warning: this ship's position is 8 days out of date.

; draft 4.2 m.

Type: Cargo ship. MMSI: 236111603.

Date/timePositionNaut miles runAvg speedWind from/ knotsBaromVisibWave heightAir tempDewpointWater temp
2017-Apr-19 01:05N 44°26' E 014°17'110.6
2017-Apr-19 01:00N 44°27' E 014°17'510.5
2017-Apr-19 00:31N 44°31' E 014°13'510.1
2017-Apr-19 00:00N 44°36' E 014°12'510.5
2017-Apr-18 23:30N 44°41' E 014°12'510.6
2017-Apr-18 23:00N 44°47' E 014°12'510.4
2017-Apr-18 22:30N 44°52' E 014°13'510.7
2017-Apr-18 22:00N 44°57' E 014°13'611.1
2017-Apr-18 21:29N 45°03' E 014°14'611.4
2017-Apr-18 20:59N 45°09' E 014°15'511.3
2017-Apr-18 20:30N 45°13' E 014°18'510.9
2017-Apr-18 20:00N 45°18' E 014°22'1 0.1
2017-Apr-18 07:01N 45°20' E 014°23'0 4.9
2017-Apr-18 06:59N 45°19' E 014°23'0 0.1
2017-Apr-18 02:22N 45°19' E 014°22'0 0.0
2017-Apr-18 00:21N 45°19' E 014°22'0 0.1
2017-Apr-17 23:55N 45°19' E 014°22'0 0.1
2017-Apr-17 23:31N 45°19' E 014°22'0 0.0
2017-Apr-17 22:28N 45°19' E 014°22'0 0.0
2017-Apr-17 21:58N 45°19' E 014°22'0 0.0
2017-Apr-17 21:16N 45°19' E 014°22'0 0.0
2017-Apr-17 21:01N 45°19' E 014°22'0 0.0
2017-Apr-17 20:22N 45°19' E 014°22'0 0.0
2017-Apr-17 20:01N 45°19' E 014°22'0 0.0
2017-Apr-17 19:31N 45°19' E 014°22'0 0.0
2017-Apr-17 18:49N 45°19' E 014°22'0 0.1
2017-Apr-17 18:25N 45°19' E 014°22'0 0.0
2017-Apr-17 17:28N 45°19' E 014°22'0 0.0
2017-Apr-17 17:01N 45°19' E 014°22'0 0.0
2017-Apr-17 16:10N 45°19' E 014°22'0 0.0
2017-Apr-17 16:01N 45°19' E 014°22'0 0.1
2017-Apr-17 14:46N 45°19' E 014°22'0 0.1
2017-Apr-17 14:25N 45°19' E 014°22'0 0.0
2017-Apr-17 13:28N 45°19' E 014°22'0 0.0
2017-Apr-17 13:01N 45°19' E 014°22'0 0.0
2017-Apr-17 12:25N 45°19' E 014°22'0 0.0
2017-Apr-17 11:49N 45°19' E 014°22'0 0.1
2017-Apr-17 11:31N 45°19' E 014°22'0 0.0
2017-Apr-17 11:01N 45°19' E 014°22'0 0.0
2017-Apr-17 10:19N 45°19' E 014°22'0 0.0
2017-Apr-17 09:58N 45°19' E 014°22'0 0.0
2017-Apr-17 09:31N 45°19' E 014°22'0 0.1
2017-Apr-17 08:55N 45°19' E 014°22'0 0.1
2017-Apr-17 08:19N 45°19' E 014°22'0 0.0
2017-Apr-17 07:55N 45°19' E 014°22'0 0.0
2017-Apr-17 06:43N 45°19' E 014°22'0 0.0
2017-Apr-17 06:31N 45°19' E 014°22'0 0.0
2017-Apr-17 05:49N 45°19' E 014°22'0 0.0
2017-Apr-17 05:28N 45°19' E 014°22'0 0.0
2017-Apr-17 05:01N 45°19' E 014°22'0 0.0
2017-Apr-17 03:58N 45°19' E 014°22'0 0.0
2017-Apr-17 03:31N 45°19' E 014°22'0 0.0
2017-Apr-17 02:22N 45°19' E 014°22'0 0.1
2017-Apr-17 02:01N 45°19' E 014°22'0 0.0
2017-Apr-17 01:31N 45°19' E 014°22'0 0.0
2017-Apr-17 00:55N 45°19' E 014°22'0 0.1
2017-Apr-17 00:31N 45°19' E 014°22'0 0.0
2017-Apr-16 23:55N 45°19' E 014°22'0 0.0
2017-Apr-16 23:30N 45°19' E 014°22'0 0.9
2017-Apr-16 23:00N 45°18' E 014°22'4 7.9
2017-Apr-16 22:30N 45°15' E 014°21'4 8.4
2017-Apr-16 22:00N 45°11' E 014°18'4 8.0
2017-Apr-16 21:30N 45°07' E 014°16'5 8.3
2017-Apr-16 20:57N 45°03' E 014°15'5 8.5
2017-Apr-16 20:20N 44°57' E 014°14'3 8.9
2017-Apr-16 20:00N 44°55' E 014°14'4 8.8
2017-Apr-16 19:30N 44°50' E 014°13'4 8.8
2017-Apr-16 19:00N 44°46' E 014°12'4 8.9
2017-Apr-16 18:30N 44°41' E 014°12'4 9.0
2017-Apr-16 18:00N 44°37' E 014°11'4 8.8
2017-Apr-16 17:30N 44°33' E 014°12'5 9.1
2017-Apr-16 17:00N 44°29' E 014°15'10 9.0
2017-Apr-16 15:54N 44°20' E 014°22'4 9.0
2017-Apr-16 15:30N 44°17' E 014°25'  
2017-Apr-11 12:52N 34°30' E 032°48'410.3
2017-Apr-11 12:30N 34°30' E 032°53'510.2
2017-Apr-11 12:00N 34°30' E 032°59'510.0
2017-Apr-11 11:30N 34°30' E 033°05'5 9.1
2017-Apr-11 11:00N 34°30' E 033°11'5 9.7
2017-Apr-11 10:30N 34°33' E 033°15'5 9.9
2017-Apr-11 10:00N 34°36' E 033°20'7 0.3
2017-Apr-10 05:25N 34°29' E 033°25'  
Track history (hours):
 
Tides and Currents Weather Stations Pressure Air Temp Water Temp Dewpoint Dewpoint Depression Visibility Wind Speed Wind Dir Waves Ship Positions

Schillplate

Last reported at 2017-Apr-19 01:05 UTC. Time now 2017-Apr-27 13:05 UTC.
Position N 44°26' E 014°17'.
Warning: this ship's position is 8 days out of date.

; draft 4.2 m.

Type: Cargo ship. MMSI: 236111603.

Date/timePositionNaut miles runAvg speedWind from/ knotsBaromVisibWave heightAir tempDewpointWater temp
2017-Apr-19 01:05N 44°26' E 014°17'110.6
2017-Apr-19 01:00N 44°27' E 014°17'510.5
2017-Apr-19 00:31N 44°31' E 014°13'510.1
2017-Apr-19 00:00N 44°36' E 014°12'510.5
2017-Apr-18 23:30N 44°41' E 014°12'510.6
2017-Apr-18 23:00N 44°47' E 014°12'510.4
2017-Apr-18 22:30N 44°52' E 014°13'510.7
2017-Apr-18 22:00N 44°57' E 014°13'611.1
2017-Apr-18 21:29N 45°03' E 014°14'611.4
2017-Apr-18 20:59N 45°09' E 014°15'511.3
2017-Apr-18 20:30N 45°13' E 014°18'510.9
2017-Apr-18 20:00N 45°18' E 014°22'1 0.1
2017-Apr-18 07:01N 45°20' E 014°23'0 4.9
2017-Apr-18 06:59N 45°19' E 014°23'0 0.1
2017-Apr-18 02:22N 45°19' E 014°22'0 0.0
2017-Apr-18 00:21N 45°19' E 014°22'0 0.1
2017-Apr-17 23:55N 45°19' E 014°22'0 0.1
2017-Apr-17 23:31N 45°19' E 014°22'0 0.0
2017-Apr-17 22:28N 45°19' E 014°22'0 0.0
2017-Apr-17 21:58N 45°19' E 014°22'0 0.0
2017-Apr-17 21:16N 45°19' E 014°22'0 0.0
2017-Apr-17 21:01N 45°19' E 014°22'0 0.0
2017-Apr-17 20:22N 45°19' E 014°22'0 0.0
2017-Apr-17 20:01N 45°19' E 014°22'0 0.0
2017-Apr-17 19:31N 45°19' E 014°22'0 0.0
2017-Apr-17 18:49N 45°19' E 014°22'0 0.1
2017-Apr-17 18:25N 45°19' E 014°22'0 0.0
2017-Apr-17 17:28N 45°19' E 014°22'0 0.0
2017-Apr-17 17:01N 45°19' E 014°22'0 0.0
2017-Apr-17 16:10N 45°19' E 014°22'0 0.0
2017-Apr-17 16:01N 45°19' E 014°22'0 0.1
2017-Apr-17 14:46N 45°19' E 014°22'0 0.1
2017-Apr-17 14:25N 45°19' E 014°22'0 0.0
2017-Apr-17 13:28N 45°19' E 014°22'0 0.0
2017-Apr-17 13:01N 45°19' E 014°22'0 0.0
2017-Apr-17 12:25N 45°19' E 014°22'0 0.0
2017-Apr-17 11:49N 45°19' E 014°22'0 0.1
2017-Apr-17 11:31N 45°19' E 014°22'0 0.0
2017-Apr-17 11:01N 45°19' E 014°22'0 0.0
2017-Apr-17 10:19N 45°19' E 014°22'0 0.0
2017-Apr-17 09:58N 45°19' E 014°22'0 0.0
2017-Apr-17 09:31N 45°19' E 014°22'0 0.1
2017-Apr-17 08:55N 45°19' E 014°22'0 0.1
2017-Apr-17 08:19N 45°19' E 014°22'0 0.0
2017-Apr-17 07:55N 45°19' E 014°22'0 0.0
2017-Apr-17 06:43N 45°19' E 014°22'0 0.0
2017-Apr-17 06:31N 45°19' E 014°22'0 0.0
2017-Apr-17 05:49N 45°19' E 014°22'0 0.0
2017-Apr-17 05:28N 45°19' E 014°22'0 0.0
2017-Apr-17 05:01N 45°19' E 014°22'0 0.0
2017-Apr-17 03:58N 45°19' E 014°22'0 0.0
2017-Apr-17 03:31N 45°19' E 014°22'0 0.0
2017-Apr-17 02:22N 45°19' E 014°22'0 0.1
2017-Apr-17 02:01N 45°19' E 014°22'0 0.0
2017-Apr-17 01:31N 45°19' E 014°22'0 0.0
2017-Apr-17 00:55N 45°19' E 014°22'0 0.1
2017-Apr-17 00:31N 45°19' E 014°22'0 0.0
2017-Apr-16 23:55N 45°19' E 014°22'0 0.0
2017-Apr-16 23:30N 45°19' E 014°22'0 0.9
2017-Apr-16 23:00N 45°18' E 014°22'4 7.9
2017-Apr-16 22:30N 45°15' E 014°21'4 8.4
2017-Apr-16 22:00N 45°11' E 014°18'4 8.0
2017-Apr-16 21:30N 45°07' E 014°16'5 8.3
2017-Apr-16 20:57N 45°03' E 014°15'5 8.5
2017-Apr-16 20:20N 44°57' E 014°14'3 8.9
2017-Apr-16 20:00N 44°55' E 014°14'4 8.8
2017-Apr-16 19:30N 44°50' E 014°13'4 8.8
2017-Apr-16 19:00N 44°46' E 014°12'4 8.9
2017-Apr-16 18:30N 44°41' E 014°12'4 9.0
2017-Apr-16 18:00N 44°37' E 014°11'4 8.8
2017-Apr-16 17:30N 44°33' E 014°12'5 9.1
2017-Apr-16 17:00N 44°29' E 014°15'10 9.0
2017-Apr-16 15:54N 44°20' E 014°22'4 9.0
2017-Apr-16 15:30N 44°17' E 014°25'  
2017-Apr-11 12:52N 34°30' E 032°48'410.3
2017-Apr-11 12:30N 34°30' E 032°53'510.2
2017-Apr-11 12:00N 34°30' E 032°59'510.0
2017-Apr-11 11:30N 34°30' E 033°05'5 9.1
2017-Apr-11 11:00N 34°30' E 033°11'5 9.7
2017-Apr-11 10:30N 34°33' E 033°15'5 9.9
2017-Apr-11 10:00N 34°36' E 033°20'7 0.3
2017-Apr-10 05:25N 34°29' E 033°25'  

Dump ship's entire track history